GR-0014 weather

Myrini - Karditsa
Karditsa, Greece

Public forecast

Using degrees Celsius for public forecast. Weather courtesy of forecast.io.

METAR (pilot weather report)

Closest report is Larisa Airport, 26.2 nm (48.5 km) NE. Retrieved 2018/06/21 18:50 UTC (15 minutes ago):

LGLR 211850Z 10004KT 9999 FEW030 24/16 Q1013 RMK FEW080 SCT180 BLU

TAF (pilot weather forecast)

Closest forecast is Aktion National Airport, 64.2 nm (118.9 km) WSW. Retrieved 2018/06/21 18:12 UTC (53 minutes ago):

TAF TAF LGPZ 211700Z 2118/2218 VRB05KT 9999 FEW025 BKN070 PROB30 TEMPO 2209/2215 5000 SHRA FEW018CB SCT020 BKN080 BECMG 2207/2209 27012KT